sensor_id;sensor_type;location;lat;lon;timestamp;temperature;humidity
33023;DHT22;19390;51.460;5.710;2023-08-06T00:01:49;14.60;99.90
33023;DHT22;19390;51.460;5.710;2023-08-06T00:04:14;14.60;99.90
33023;DHT22;19390;51.460;5.710;2023-08-06T00:06:40;14.60;99.90
33023;DHT22;19390;51.460;5.710;2023-08-06T00:09:06;14.60;99.90
33023;DHT22;19390;51.460;5.710;2023-08-06T00:11:31;14.60;99.90
33023;DHT22;19390;51.460;5.710;2023-08-06T00:13:57;14.60;99.90
33023;DHT22;19390;51.460;5.710;2023-08-06T00:16:23;14.60;99.90
33023;DHT22;19390;51.460;5.710;2023-08-06T00:18:48;14.60;99.90
33023;DHT22;19390;51.460;5.710;2023-08-06T00:21:14;14.60;99.90
33023;DHT22;19390;51.460;5.710;2023-08-06T00:23:43;14.60;99.90
33023;DHT22;19390;51.460;5.710;2023-08-06T00:26:08;14.60;99.90
33023;DHT22;19390;51.460;5.710;2023-08-06T00:28:34;14.60;99.90
33023;DHT22;19390;51.460;5.710;2023-08-06T00:30:59;14.60;99.90
33023;DHT22;19390;51.460;5.710;2023-08-06T00:33:25;14.60;99.90
33023;DHT22;19390;51.460;5.710;2023-08-06T00:35:51;14.60;99.90
33023;DHT22;19390;51.460;5.710;2023-08-06T00:38:16;14.60;99.90
33023;DHT22;19390;51.460;5.710;2023-08-06T00:40:42;14.60;99.90
33023;DHT22;19390;51.460;5.710;2023-08-06T00:43:08;14.60;99.90
33023;DHT22;19390;51.460;5.710;2023-08-06T00:45:36;14.60;99.90
33023;DHT22;19390;51.460;5.710;2023-08-06T00:48:03;14.60;99.90
33023;DHT22;19390;51.460;5.710;2023-08-06T00:50:29;14.60;99.90
33023;DHT22;19390;51.460;5.710;2023-08-06T00:52:55;14.50;99.90
33023;DHT22;19390;51.460;5.710;2023-08-06T00:55:21;14.60;99.90
33023;DHT22;19390;51.460;5.710;2023-08-06T00:57:47;14.50;99.90
33023;DHT22;19390;51.460;5.710;2023-08-06T01:00:12;14.50;99.90
33023;DHT22;19390;51.460;5.710;2023-08-06T01:02:38;14.60;99.90
33023;DHT22;19390;51.460;5.710;2023-08-06T01:05:04;14.60;99.90
33023;DHT22;19390;51.460;5.710;2023-08-06T01:13:04;14.60;99.90
33023;DHT22;19390;51.460;5.710;2023-08-06T01:15:38;14.60;99.90
33023;DHT22;19390;51.460;5.710;2023-08-06T01:18:06;14.60;99.90
33023;DHT22;19390;51.460;5.710;2023-08-06T01:20:32;14.60;99.90
33023;DHT22;19390;51.460;5.710;2023-08-06T01:22:57;14.60;99.90
33023;DHT22;19390;51.460;5.710;2023-08-06T01:25:29;14.60;99.90
33023;DHT22;19390;51.460;5.710;2023-08-06T01:28:02;14.60;99.90
33023;DHT22;19390;51.460;5.710;2023-08-06T01:30:30;14.60;99.90
33023;DHT22;19390;51.460;5.710;2023-08-06T01:33:04;14.60;99.90
33023;DHT22;19390;51.460;5.710;2023-08-06T01:35:31;14.50;99.90
33023;DHT22;19390;51.460;5.710;2023-08-06T01:37:58;14.50;99.90
33023;DHT22;19390;51.460;5.710;2023-08-06T01:40:25;14.50;99.90
33023;DHT22;19390;51.460;5.710;2023-08-06T01:42:52;14.50;99.90
33023;DHT22;19390;51.460;5.710;2023-08-06T01:45:18;14.50;99.90
33023;DHT22;19390;51.460;5.710;2023-08-06T01:47:43;14.50;99.90
33023;DHT22;19390;51.460;5.710;2023-08-06T01:50:09;14.50;99.90
33023;DHT22;19390;51.460;5.710;2023-08-06T01:52:34;14.50;99.90
33023;DHT22;19390;51.460;5.710;2023-08-06T01:55:00;14.50;99.90
33023;DHT22;19390;51.460;5.710;2023-08-06T01:57:25;14.40;99.90
33023;DHT22;19390;51.460;5.710;2023-08-06T01:59:51;14.50;99.90
33023;DHT22;19390;51.460;5.710;2023-08-06T02:02:17;14.50;99.90
33023;DHT22;19390;51.460;5.710;2023-08-06T02:04:42;14.50;99.90
33023;DHT22;19390;51.460;5.710;2023-08-06T02:07:08;14.50;99.90
33023;DHT22;19390;51.460;5.710;2023-08-06T02:09:33;14.50;99.90
33023;DHT22;19390;51.460;5.710;2023-08-06T02:12:00;14.40;99.90
33023;DHT22;19390;51.460;5.710;2023-08-06T02:14:26;14.40;99.90
33023;DHT22;19390;51.460;5.710;2023-08-06T02:16:52;14.40;99.90
33023;DHT22;19390;51.460;5.710;2023-08-06T02:19:17;14.40;99.90
33023;DHT22;19390;51.460;5.710;2023-08-06T02:21:43;14.40;99.90
33023;DHT22;19390;51.460;5.710;2023-08-06T02:24:08;14.30;99.90
33023;DHT22;19390;51.460;5.710;2023-08-06T02:26:34;14.20;99.90
33023;DHT22;19390;51.460;5.710;2023-08-06T02:28:59;14.20;99.90
33023;DHT22;19390;51.460;5.710;2023-08-06T02:31:25;14.20;99.90
33023;DHT22;19390;51.460;5.710;2023-08-06T02:33:50;14.20;99.90
33023;DHT22;19390;51.460;5.710;2023-08-06T02:36:16;14.10;99.90
33023;DHT22;19390;51.460;5.710;2023-08-06T02:38:42;14.10;99.90
33023;DHT22;19390;51.460;5.710;2023-08-06T02:41:07;14.10;99.90
33023;DHT22;19390;51.460;5.710;2023-08-06T02:43:33;14.10;99.90
33023;DHT22;19390;51.460;5.710;2023-08-06T02:45:59;14.10;99.90
33023;DHT22;19390;51.460;5.710;2023-08-06T02:48:25;14.10;99.90
33023;DHT22;19390;51.460;5.710;2023-08-06T02:50:50;14.10;99.90
33023;DHT22;19390;51.460;5.710;2023-08-06T02:53:16;14.10;99.90
33023;DHT22;19390;51.460;5.710;2023-08-06T02:55:46;14.00;99.90
33023;DHT22;19390;51.460;5.710;2023-08-06T02:58:13;14.00;99.90
33023;DHT22;19390;51.460;5.710;2023-08-06T03:00:39;13.90;99.90
33023;DHT22;19390;51.460;5.710;2023-08-06T03:03:05;13.90;99.90
33023;DHT22;19390;51.460;5.710;2023-08-06T03:05:30;13.90;99.90
33023;DHT22;19390;51.460;5.710;2023-08-06T03:07:56;13.90;99.90
33023;DHT22;19390;51.460;5.710;2023-08-06T03:10:21;13.90;99.90
33023;DHT22;19390;51.460;5.710;2023-08-06T03:12:47;13.90;99.90
33023;DHT22;19390;51.460;5.710;2023-08-06T03:15:12;13.90;99.90
33023;DHT22;19390;51.460;5.710;2023-08-06T03:17:38;14.00;99.90
33023;DHT22;19390;51.460;5.710;2023-08-06T03:20:04;14.00;99.90
33023;DHT22;19390;51.460;5.710;2023-08-06T03:22:30;14.00;99.90
33023;DHT22;19390;51.460;5.710;2023-08-06T03:24:55;14.00;99.90
33023;DHT22;19390;51.460;5.710;2023-08-06T03:27:21;14.00;99.90
33023;DHT22;19390;51.460;5.710;2023-08-06T03:29:49;14.00;99.90
33023;DHT22;19390;51.460;5.710;2023-08-06T03:32:15;14.00;99.90
33023;DHT22;19390;51.460;5.710;2023-08-06T03:34:41;14.00;99.90
33023;DHT22;19390;51.460;5.710;2023-08-06T03:37:06;14.00;99.90
33023;DHT22;19390;51.460;5.710;2023-08-06T03:39:32;14.00;99.90
33023;DHT22;19390;51.460;5.710;2023-08-06T03:41:57;14.00;99.90
33023;DHT22;19390;51.460;5.710;2023-08-06T03:44:23;14.10;99.90
33023;DHT22;19390;51.460;5.710;2023-08-06T03:46:48;14.10;99.90
33023;DHT22;19390;51.460;5.710;2023-08-06T03:49:14;14.10;99.90
33023;DHT22;19390;51.460;5.710;2023-08-06T03:51:40;14.10;99.90
33023;DHT22;19390;51.460;5.710;2023-08-06T03:54:05;14.10;99.90
33023;DHT22;19390;51.460;5.710;2023-08-06T03:56:31;14.10;99.90
33023;DHT22;19390;51.460;5.710;2023-08-06T03:58:56;14.10;99.90
33023;DHT22;19390;51.460;5.710;2023-08-06T04:01:22;14.10;99.90
33023;DHT22;19390;51.460;5.710;2023-08-06T04:03:47;14.10;99.90
33023;DHT22;19390;51.460;5.710;2023-08-06T04:06:13;14.20;99.90
33023;DHT22;19390;51.460;5.710;2023-08-06T04:08:39;14.30;99.90
33023;DHT22;19390;51.460;5.710;2023-08-06T04:11:04;14.20;99.90
33023;DHT22;19390;51.460;5.710;2023-08-06T04:13:30;14.30;99.90
33023;DHT22;19390;51.460;5.710;2023-08-06T04:16:03;14.30;99.90
33023;DHT22;19390;51.460;5.710;2023-08-06T04:18:28;14.20;99.90
33023;DHT22;19390;51.460;5.710;2023-08-06T04:20:54;14.20;99.90
33023;DHT22;19390;51.460;5.710;2023-08-06T04:23:20;14.20;99.90
33023;DHT22;19390;51.460;5.710;2023-08-06T04:25:46;14.30;99.90
33023;DHT22;19390;51.460;5.710;2023-08-06T04:28:12;14.30;99.90
33023;DHT22;19390;51.460;5.710;2023-08-06T04:30:38;14.40;99.90
33023;DHT22;19390;51.460;5.710;2023-08-06T04:33:03;14.40;99.90
33023;DHT22;19390;51.460;5.710;2023-08-06T04:35:29;14.40;99.90
33023;DHT22;19390;51.460;5.710;2023-08-06T04:37:55;14.40;99.90
33023;DHT22;19390;51.460;5.710;2023-08-06T04:40:20;14.40;99.90
33023;DHT22;19390;51.460;5.710;2023-08-06T04:42:46;14.50;99.90
33023;DHT22;19390;51.460;5.710;2023-08-06T04:45:11;14.50;99.90
33023;DHT22;19390;51.460;5.710;2023-08-06T04:47:37;14.50;99.90
33023;DHT22;19390;51.460;5.710;2023-08-06T04:50:03;14.60;99.90
33023;DHT22;19390;51.460;5.710;2023-08-06T04:52:28;14.60;99.90
33023;DHT22;19390;51.460;5.710;2023-08-06T04:54:55;14.60;99.90
33023;DHT22;19390;51.460;5.710;2023-08-06T04:57:20;14.70;99.90
33023;DHT22;19390;51.460;5.710;2023-08-06T04:59:46;14.70;99.90
33023;DHT22;19390;51.460;5.710;2023-08-06T05:02:12;14.80;99.90
33023;DHT22;19390;51.460;5.710;2023-08-06T05:04:37;14.80;99.90
33023;DHT22;19390;51.460;5.710;2023-08-06T05:07:04;14.80;99.90
33023;DHT22;19390;51.460;5.710;2023-08-06T05:09:30;14.80;99.90
33023;DHT22;19390;51.460;5.710;2023-08-06T05:11:55;14.80;99.90
33023;DHT22;19390;51.460;5.710;2023-08-06T05:14:21;14.80;99.90
33023;DHT22;19390;51.460;5.710;2023-08-06T05:16:47;14.80;99.90
33023;DHT22;19390;51.460;5.710;2023-08-06T05:19:12;14.90;99.90
33023;DHT22;19390;51.460;5.710;2023-08-06T05:21:38;14.90;99.90
33023;DHT22;19390;51.460;5.710;2023-08-06T05:24:03;15.00;99.90
33023;DHT22;19390;51.460;5.710;2023-08-06T05:26:29;15.10;99.90
33023;DHT22;19390;51.460;5.710;2023-08-06T05:28:55;15.00;99.90
33023;DHT22;19390;51.460;5.710;2023-08-06T05:31:20;15.10;99.90
33023;DHT22;19390;51.460;5.710;2023-08-06T05:33:46;15.10;99.90
33023;DHT22;19390;51.460;5.710;2023-08-06T05:36:11;15.20;99.90
33023;DHT22;19390;51.460;5.710;2023-08-06T05:38:37;15.20;99.90
33023;DHT22;19390;51.460;5.710;2023-08-06T05:41:02;15.20;99.90
33023;DHT22;19390;51.460;5.710;2023-08-06T05:43:28;15.30;99.90
33023;DHT22;19390;51.460;5.710;2023-08-06T05:45:54;15.20;99.90
33023;DHT22;19390;51.460;5.710;2023-08-06T05:48:19;15.20;99.90
33023;DHT22;19390;51.460;5.710;2023-08-06T05:50:45;15.20;99.90
33023;DHT22;19390;51.460;5.710;2023-08-06T05:53:10;15.20;99.90
33023;DHT22;19390;51.460;5.710;2023-08-06T05:55:36;15.30;99.90
33023;DHT22;19390;51.460;5.710;2023-08-06T05:58:01;15.30;99.90
33023;DHT22;19390;51.460;5.710;2023-08-06T06:00:27;15.20;99.90
33023;DHT22;19390;51.460;5.710;2023-08-06T06:02:53;15.30;99.90
33023;DHT22;19390;51.460;5.710;2023-08-06T06:05:18;15.40;99.90
33023;DHT22;19390;51.460;5.710;2023-08-06T06:07:44;15.30;99.90
33023;DHT22;19390;51.460;5.710;2023-08-06T06:10:10;15.40;99.90
33023;DHT22;19390;51.460;5.710;2023-08-06T06:12:35;15.50;99.90
33023;DHT22;19390;51.460;5.710;2023-08-06T06:15:01;15.50;99.90
33023;DHT22;19390;51.460;5.710;2023-08-06T06:17:27;15.40;99.90
33023;DHT22;19390;51.460;5.710;2023-08-06T06:19:53;15.40;99.90
33023;DHT22;19390;51.460;5.710;2023-08-06T06:22:18;15.40;99.90
33023;DHT22;19390;51.460;5.710;2023-08-06T06:24:44;15.60;99.90
33023;DHT22;19390;51.460;5.710;2023-08-06T06:27:09;15.60;99.90
33023;DHT22;19390;51.460;5.710;2023-08-06T06:29:35;15.50;99.90
33023;DHT22;19390;51.460;5.710;2023-08-06T06:32:01;15.50;99.90
33023;DHT22;19390;51.460;5.710;2023-08-06T06:34:26;15.60;99.90
33023;DHT22;19390;51.460;5.710;2023-08-06T06:36:52;15.70;99.90
33023;DHT22;19390;51.460;5.710;2023-08-06T06:39:18;15.80;99.90
33023;DHT22;19390;51.460;5.710;2023-08-06T06:41:43;16.00;99.90
33023;DHT22;19390;51.460;5.710;2023-08-06T06:44:09;16.20;99.90
33023;DHT22;19390;51.460;5.710;2023-08-06T06:46:35;16.20;99.90
33023;DHT22;19390;51.460;5.710;2023-08-06T06:49:01;16.20;99.90
33023;DHT22;19390;51.460;5.710;2023-08-06T06:51:26;16.20;99.90
33023;DHT22;19390;51.460;5.710;2023-08-06T06:53:52;16.40;99.90
33023;DHT22;19390;51.460;5.710;2023-08-06T06:56:17;16.50;99.90
33023;DHT22;19390;51.460;5.710;2023-08-06T06:58:43;16.70;99.90
33023;DHT22;19390;51.460;5.710;2023-08-06T07:01:09;16.70;99.90
33023;DHT22;19390;51.460;5.710;2023-08-06T07:03:37;17.00;99.90
33023;DHT22;19390;51.460;5.710;2023-08-06T07:06:03;17.30;99.90
33023;DHT22;19390;51.460;5.710;2023-08-06T07:08:29;17.50;99.90
33023;DHT22;19390;51.460;5.710;2023-08-06T07:11:05;17.50;99.90
33023;DHT22;19390;51.460;5.710;2023-08-06T07:13:31;17.90;99.90
33023;DHT22;19390;51.460;5.710;2023-08-06T07:15:57;17.90;99.90
33023;DHT22;19390;51.460;5.710;2023-08-06T07:18:23;18.20;99.90
33023;DHT22;19390;51.460;5.710;2023-08-06T07:20:50;18.50;99.90
33023;DHT22;19390;51.460;5.710;2023-08-06T07:23:16;18.80;99.90
33023;DHT22;19390;51.460;5.710;2023-08-06T07:25:42;19.30;99.90
33023;DHT22;19390;51.460;5.710;2023-08-06T07:28:08;19.70;99.90
33023;DHT22;19390;51.460;5.710;2023-08-06T07:30:33;19.80;99.90
33023;DHT22;19390;51.460;5.710;2023-08-06T07:32:59;19.80;99.90
33023;DHT22;19390;51.460;5.710;2023-08-06T07:35:24;19.20;99.90
33023;DHT22;19390;51.460;5.710;2023-08-06T07:37:53;18.30;99.90
33023;DHT22;19390;51.460;5.710;2023-08-06T07:40:19;18.10;99.90
33023;DHT22;19390;51.460;5.710;2023-08-06T07:42:44;17.70;99.90
33023;DHT22;19390;51.460;5.710;2023-08-06T07:45:10;17.60;99.90
33023;DHT22;19390;51.460;5.710;2023-08-06T07:47:35;17.50;99.90
33023;DHT22;19390;51.460;5.710;2023-08-06T07:50:01;17.50;99.90
33023;DHT22;19390;51.460;5.710;2023-08-06T07:52:27;17.40;99.90
33023;DHT22;19390;51.460;5.710;2023-08-06T07:54:52;16.90;99.90
33023;DHT22;19390;51.460;5.710;2023-08-06T07:57:18;16.50;99.90
33023;DHT22;19390;51.460;5.710;2023-08-06T07:59:43;16.70;99.90
33023;DHT22;19390;51.460;5.710;2023-08-06T08:02:09;16.70;99.90
33023;DHT22;19390;51.460;5.710;2023-08-06T08:04:34;16.60;99.90
33023;DHT22;19390;51.460;5.710;2023-08-06T08:07:00;16.40;99.90
33023;DHT22;19390;51.460;5.710;2023-08-06T08:09:26;16.00;99.90
33023;DHT22;19390;51.460;5.710;2023-08-06T08:11:51;16.00;99.90
33023;DHT22;19390;51.460;5.710;2023-08-06T08:14:18;15.70;99.90
33023;DHT22;19390;51.460;5.710;2023-08-06T08:16:43;15.70;99.90
33023;DHT22;19390;51.460;5.710;2023-08-06T08:19:09;15.80;99.90
33023;DHT22;19390;51.460;5.710;2023-08-06T08:21:34;15.70;99.90
33023;DHT22;19390;51.460;5.710;2023-08-06T08:24:00;15.60;99.90
33023;DHT22;19390;51.460;5.710;2023-08-06T08:26:26;15.30;99.90
33023;DHT22;19390;51.460;5.710;2023-08-06T08:28:53;15.20;99.90
33023;DHT22;19390;51.460;5.710;2023-08-06T08:31:19;15.10;99.90
33023;DHT22;19390;51.460;5.710;2023-08-06T08:33:45;15.10;99.90
33023;DHT22;19390;51.460;5.710;2023-08-06T08:36:10;15.00;99.90
33023;DHT22;19390;51.460;5.710;2023-08-06T08:38:36;14.90;99.90
33023;DHT22;19390;51.460;5.710;2023-08-06T08:41:01;14.90;99.90
33023;DHT22;19390;51.460;5.710;2023-08-06T08:43:27;14.90;99.90
33023;DHT22;19390;51.460;5.710;2023-08-06T08:45:53;14.80;99.90
33023;DHT22;19390;51.460;5.710;2023-08-06T08:48:24;14.60;99.90
33023;DHT22;19390;51.460;5.710;2023-08-06T08:50:50;14.50;99.90
33023;DHT22;19390;51.460;5.710;2023-08-06T08:53:17;14.50;99.90
33023;DHT22;19390;51.460;5.710;2023-08-06T08:55:46;14.50;99.90
33023;DHT22;19390;51.460;5.710;2023-08-06T08:58:11;14.40;99.90
33023;DHT22;19390;51.460;5.710;2023-08-06T09:00:37;14.50;99.90
33023;DHT22;19390;51.460;5.710;2023-08-06T09:03:06;14.70;99.90
33023;DHT22;19390;51.460;5.710;2023-08-06T09:05:33;14.80;99.90
33023;DHT22;19390;51.460;5.710;2023-08-06T09:08:03;15.00;99.90
33023;DHT22;19390;51.460;5.710;2023-08-06T09:10:29;14.90;99.90
33023;DHT22;19390;51.460;5.710;2023-08-06T09:12:56;14.70;99.90
33023;DHT22;19390;51.460;5.710;2023-08-06T09:15:26;15.00;99.90
33023;DHT22;19390;51.460;5.710;2023-08-06T09:17:55;14.90;99.90
33023;DHT22;19390;51.460;5.710;2023-08-06T09:20:21;15.00;99.90
33023;DHT22;19390;51.460;5.710;2023-08-06T09:22:46;15.10;99.90
33023;DHT22;19390;51.460;5.710;2023-08-06T09:25:21;15.20;99.90
33023;DHT22;19390;51.460;5.710;2023-08-06T09:27:50;15.20;99.90
33023;DHT22;19390;51.460;5.710;2023-08-06T09:30:35;15.30;99.90
33023;DHT22;19390;51.460;5.710;2023-08-06T09:33:02;15.20;99.90
33023;DHT22;19390;51.460;5.710;2023-08-06T09:35:31;15.10;99.90
33023;DHT22;19390;51.460;5.710;2023-08-06T09:38:08;15.30;99.90
33023;DHT22;19390;51.460;5.710;2023-08-06T09:40:36;15.00;99.90
33023;DHT22;19390;51.460;5.710;2023-08-06T09:43:02;15.20;99.90
33023;DHT22;19390;51.460;5.710;2023-08-06T09:45:36;15.20;99.90
33023;DHT22;19390;51.460;5.710;2023-08-06T09:48:06;15.40;99.90
33023;DHT22;19390;51.460;5.710;2023-08-06T09:50:34;15.60;99.90
33023;DHT22;19390;51.460;5.710;2023-08-06T09:53:07;15.60;99.90
33023;DHT22;19390;51.460;5.710;2023-08-06T09:55:34;15.60;99.90
33023;DHT22;19390;51.460;5.710;2023-08-06T09:58:00;16.10;99.90
33023;DHT22;19390;51.460;5.710;2023-08-06T10:00:26;16.20;99.90
33023;DHT22;19390;51.460;5.710;2023-08-06T10:02:53;16.30;99.90
33023;DHT22;19390;51.460;5.710;2023-08-06T10:05:22;16.50;99.90
33023;DHT22;19390;51.460;5.710;2023-08-06T10:07:49;16.10;99.90
33023;DHT22;19390;51.460;5.710;2023-08-06T10:10:16;16.50;99.90
33023;DHT22;19390;51.460;5.710;2023-08-06T10:12:49;16.50;99.90
33023;DHT22;19390;51.460;5.710;2023-08-06T10:15:17;16.20;99.90
33023;DHT22;19390;51.460;5.710;2023-08-06T10:17:45;16.20;99.90
33023;DHT22;19390;51.460;5.710;2023-08-06T10:20:12;16.10;99.90
33023;DHT22;19390;51.460;5.710;2023-08-06T10:22:45;15.90;99.90
33023;DHT22;19390;51.460;5.710;2023-08-06T10:25:11;16.00;99.90
33023;DHT22;19390;51.460;5.710;2023-08-06T10:27:53;16.10;99.90
33023;DHT22;19390;51.460;5.710;2023-08-06T10:30:25;16.20;99.90
33023;DHT22;19390;51.460;5.710;2023-08-06T10:32:59;15.80;99.90
33023;DHT22;19390;51.460;5.710;2023-08-06T10:35:47;15.80;99.90
33023;DHT22;19390;51.460;5.710;2023-08-06T10:38:22;16.10;99.90
33023;DHT22;19390;51.460;5.710;2023-08-06T10:40:49;16.10;99.90
33023;DHT22;19390;51.460;5.710;2023-08-06T10:45:59;16.10;99.90
33023;DHT22;19390;51.460;5.710;2023-08-06T10:48:38;16.00;99.90
33023;DHT22;19390;51.460;5.710;2023-08-06T10:51:11;15.90;99.90
33023;DHT22;19390;51.460;5.710;2023-08-06T10:53:42;15.90;99.90
33023;DHT22;19390;51.460;5.710;2023-08-06T10:56:15;15.80;99.90
33023;DHT22;19390;51.460;5.710;2023-08-06T10:58:42;16.20;99.90
33023;DHT22;19390;51.460;5.710;2023-08-06T11:01:08;16.20;99.90
33023;DHT22;19390;51.460;5.710;2023-08-06T11:03:34;16.00;99.90
33023;DHT22;19390;51.460;5.710;2023-08-06T11:06:00;16.50;99.90
33023;DHT22;19390;51.460;5.710;2023-08-06T11:08:26;16.30;99.90
33023;DHT22;19390;51.460;5.710;2023-08-06T11:10:52;16.20;99.90
33023;DHT22;19390;51.460;5.710;2023-08-06T11:13:18;16.10;99.90
33023;DHT22;19390;51.460;5.710;2023-08-06T11:15:45;16.30;99.90
33023;DHT22;19390;51.460;5.710;2023-08-06T11:18:11;16.20;99.90
33023;DHT22;19390;51.460;5.710;2023-08-06T11:20:36;15.90;99.90
33023;DHT22;19390;51.460;5.710;2023-08-06T11:23:03;15.80;99.90
33023;DHT22;19390;51.460;5.710;2023-08-06T11:25:28;15.90;99.90
33023;DHT22;19390;51.460;5.710;2023-08-06T11:27:54;16.00;99.90
33023;DHT22;19390;51.460;5.710;2023-08-06T11:30:20;16.20;99.90
33023;DHT22;19390;51.460;5.710;2023-08-06T11:32:46;16.40;99.90
33023;DHT22;19390;51.460;5.710;2023-08-06T11:35:15;16.30;99.90
33023;DHT22;19390;51.460;5.710;2023-08-06T11:37:47;16.40;99.90
33023;DHT22;19390;51.460;5.710;2023-08-06T11:40:15;16.50;99.90
33023;DHT22;19390;51.460;5.710;2023-08-06T11:42:41;16.30;99.90
33023;DHT22;19390;51.460;5.710;2023-08-06T11:45:08;16.80;99.90
33023;DHT22;19390;51.460;5.710;2023-08-06T11:47:38;16.80;99.90
33023;DHT22;19390;51.460;5.710;2023-08-06T11:50:06;16.30;99.90
33023;DHT22;19390;51.460;5.710;2023-08-06T11:52:31;16.30;99.90
33023;DHT22;19390;51.460;5.710;2023-08-06T11:55:02;16.10;99.90
33023;DHT22;19390;51.460;5.710;2023-08-06T11:57:44;16.20;99.90
33023;DHT22;19390;51.460;5.710;2023-08-06T12:00:12;16.10;99.90
33023;DHT22;19390;51.460;5.710;2023-08-06T12:02:39;16.40;99.90
33023;DHT22;19390;51.460;5.710;2023-08-06T12:05:22;16.60;99.90
33023;DHT22;19390;51.460;5.710;2023-08-06T12:07:54;17.70;99.90
33023;DHT22;19390;51.460;5.710;2023-08-06T12:10:21;17.80;99.90
33023;DHT22;19390;51.460;5.710;2023-08-06T12:12:47;18.00;99.90
33023;DHT22;19390;51.460;5.710;2023-08-06T12:15:13;17.90;99.90
33023;DHT22;19390;51.460;5.710;2023-08-06T12:17:39;17.70;99.90
33023;DHT22;19390;51.460;5.710;2023-08-06T12:20:06;17.70;99.90
33023;DHT22;19390;51.460;5.710;2023-08-06T12:22:32;18.20;99.90
33023;DHT22;19390;51.460;5.710;2023-08-06T12:25:02;18.30;99.90
33023;DHT22;19390;51.460;5.710;2023-08-06T12:27:48;17.90;99.90
33023;DHT22;19390;51.460;5.710;2023-08-06T12:30:13;17.90;99.90
33023;DHT22;19390;51.460;5.710;2023-08-06T12:32:39;18.20;99.90
33023;DHT22;19390;51.460;5.710;2023-08-06T12:35:05;18.80;99.90
33023;DHT22;19390;51.460;5.710;2023-08-06T12:37:33;18.80;99.90
33023;DHT22;19390;51.460;5.710;2023-08-06T12:39:59;18.60;99.90
33023;DHT22;19390;51.460;5.710;2023-08-06T12:42:24;18.80;99.90
33023;DHT22;19390;51.460;5.710;2023-08-06T12:44:50;19.30;99.90
33023;DHT22;19390;51.460;5.710;2023-08-06T12:47:16;19.00;99.90
33023;DHT22;19390;51.460;5.710;2023-08-06T12:49:42;19.10;99.90
33023;DHT22;19390;51.460;5.710;2023-08-06T12:52:08;18.70;99.90
33023;DHT22;19390;51.460;5.710;2023-08-06T12:54:35;18.50;99.90
33023;DHT22;19390;51.460;5.710;2023-08-06T12:57:04;18.00;99.90
33023;DHT22;19390;51.460;5.710;2023-08-06T12:59:30;17.90;99.90
33023;DHT22;19390;51.460;5.710;2023-08-06T13:01:56;18.10;99.90
33023;DHT22;19390;51.460;5.710;2023-08-06T13:04:22;18.10;99.90
33023;DHT22;19390;51.460;5.710;2023-08-06T13:06:47;17.70;99.90
33023;DHT22;19390;51.460;5.710;2023-08-06T13:09:13;17.30;99.90
33023;DHT22;19390;51.460;5.710;2023-08-06T13:11:39;17.70;99.90
33023;DHT22;19390;51.460;5.710;2023-08-06T13:14:07;17.90;99.90
33023;DHT22;19390;51.460;5.710;2023-08-06T13:16:35;17.90;99.90
33023;DHT22;19390;51.460;5.710;2023-08-06T13:19:01;18.10;99.90
33023;DHT22;19390;51.460;5.710;2023-08-06T13:24:10;17.60;99.90
33023;DHT22;19390;51.460;5.710;2023-08-06T13:26:36;17.00;99.90
33023;DHT22;19390;51.460;5.710;2023-08-06T13:29:02;16.70;99.90
33023;DHT22;19390;51.460;5.710;2023-08-06T13:31:28;16.50;99.90
33023;DHT22;19390;51.460;5.710;2023-08-06T13:33:54;16.40;99.90
33023;DHT22;19390;51.460;5.710;2023-08-06T13:36:21;16.40;99.90
33023;DHT22;19390;51.460;5.710;2023-08-06T13:38:47;16.70;99.90
33023;DHT22;19390;51.460;5.710;2023-08-06T13:41:13;16.40;99.90
33023;DHT22;19390;51.460;5.710;2023-08-06T13:43:39;16.80;99.90
33023;DHT22;19390;51.460;5.710;2023-08-06T13:46:05;17.10;99.90
33023;DHT22;19390;51.460;5.710;2023-08-06T13:48:30;17.40;99.90
33023;DHT22;19390;51.460;5.710;2023-08-06T13:50:56;18.00;99.90
33023;DHT22;19390;51.460;5.710;2023-08-06T13:53:22;18.20;99.90
33023;DHT22;19390;51.460;5.710;2023-08-06T13:55:47;18.00;99.90
33023;DHT22;19390;51.460;5.710;2023-08-06T13:58:13;17.40;99.90
33023;DHT22;19390;51.460;5.710;2023-08-06T14:00:39;16.50;99.90
33023;DHT22;19390;51.460;5.710;2023-08-06T14:03:04;16.90;99.90
33023;DHT22;19390;51.460;5.710;2023-08-06T14:05:30;17.30;99.90
33023;DHT22;19390;51.460;5.710;2023-08-06T14:07:55;17.20;99.90
33023;DHT22;19390;51.460;5.710;2023-08-06T14:10:21;17.50;99.90
33023;DHT22;19390;51.460;5.710;2023-08-06T14:12:47;17.70;99.90
33023;DHT22;19390;51.460;5.710;2023-08-06T14:15:13;17.30;99.90
33023;DHT22;19390;51.460;5.710;2023-08-06T14:17:38;17.10;99.90
33023;DHT22;19390;51.460;5.710;2023-08-06T14:20:05;17.10;99.90
33023;DHT22;19390;51.460;5.710;2023-08-06T14:22:33;17.10;99.90
33023;DHT22;19390;51.460;5.710;2023-08-06T14:24:59;17.10;99.90
33023;DHT22;19390;51.460;5.710;2023-08-06T14:27:25;16.90;99.90
33023;DHT22;19390;51.460;5.710;2023-08-06T14:29:50;16.80;99.90
33023;DHT22;19390;51.460;5.710;2023-08-06T14:32:16;16.90;99.90
33023;DHT22;19390;51.460;5.710;2023-08-06T14:34:43;17.10;99.90
33023;DHT22;19390;51.460;5.710;2023-08-06T14:37:10;17.00;99.90
33023;DHT22;19390;51.460;5.710;2023-08-06T14:39:35;16.90;99.90
33023;DHT22;19390;51.460;5.710;2023-08-06T14:42:01;16.90;99.90
33023;DHT22;19390;51.460;5.710;2023-08-06T14:44:27;16.40;99.90
33023;DHT22;19390;51.460;5.710;2023-08-06T14:46:53;16.60;99.90
33023;DHT22;19390;51.460;5.710;2023-08-06T14:49:18;16.70;99.90
33023;DHT22;19390;51.460;5.710;2023-08-06T14:51:44;16.70;99.90
33023;DHT22;19390;51.460;5.710;2023-08-06T14:54:10;16.50;99.90
33023;DHT22;19390;51.460;5.710;2023-08-06T14:56:35;16.40;99.90
33023;DHT22;19390;51.460;5.710;2023-08-06T14:59:01;16.10;99.90
33023;DHT22;19390;51.460;5.710;2023-08-06T15:01:26;15.60;99.90
33023;DHT22;19390;51.460;5.710;2023-08-06T15:03:52;15.20;99.90
33023;DHT22;19390;51.460;5.710;2023-08-06T15:06:18;15.20;99.90
33023;DHT22;19390;51.460;5.710;2023-08-06T15:08:43;15.40;99.90
33023;DHT22;19390;51.460;5.710;2023-08-06T15:11:13;15.20;99.90
33023;DHT22;19390;51.460;5.710;2023-08-06T15:13:40;15.30;99.90
33023;DHT22;19390;51.460;5.710;2023-08-06T15:16:05;15.10;99.90
33023;DHT22;19390;51.460;5.710;2023-08-06T15:18:31;15.10;99.90
33023;DHT22;19390;51.460;5.710;2023-08-06T15:20:57;15.00;99.90
33023;DHT22;19390;51.460;5.710;2023-08-06T15:23:25;15.10;99.90
33023;DHT22;19390;51.460;5.710;2023-08-06T15:25:51;15.00;99.90
33023;DHT22;19390;51.460;5.710;2023-08-06T15:28:16;15.10;99.90
33023;DHT22;19390;51.460;5.710;2023-08-06T15:30:49;15.20;99.90
33023;DHT22;19390;51.460;5.710;2023-08-06T15:33:15;14.90;99.90
33023;DHT22;19390;51.460;5.710;2023-08-06T15:35:41;15.10;99.90
33023;DHT22;19390;51.460;5.710;2023-08-06T15:38:07;15.20;99.90